Date,TemperatureHighF,TemperatureAvgF,TemperatureLowF,DewpointHighF,DewpointAvgF,DewpointLowF,HumidityHigh,HumidityAvg,HumidityLow,PressureMaxIn,PressureMinIn,WindSpeedMaxMPH,WindSpeedAvgMPH,GustSpeedMaxMPH,PrecipitationSumIn
2012-12-1,66.0,54.6,42.3,24.3,18.3,7.2,41,25,15,29.87,29.76,23,5,30,0.00
2012-12-2,63.1,48.7,36.3,18.3,9.7,5.7,32,21,11,29.85,29.55,13,2,20,0.00
2012-12-3,58.1,47.5,33.1,24.4,13.5,5.4,40,26,15,30.11,29.56,33,6,39,0.00
2012-12-4,52.2,39.8,25.3,18.0,9.7,3.6,45,29,18,30.33,30.10,6,2,11,0.00
2012-12-5,70.5,55.0,42.3,26.4,20.8,12.9,47,28,13,30.17,29.68,26,6,36,0.00
2012-12-6,54.9,44.1,30.4,30.9,26.5,21.6,76,52,27,29.85,29.70,26,5,32,0.00
2012-12-7,55.4,39.0,28.6,22.5,18.4,10.9,73,46,17,29.93,29.75,21,4,26,0.00
2012-12-8,51.4,33.7,22.5,24.6,17.1,7.2,84,56,19,29.94,29.65,24,5,37,0.00
2012-12-9,24.8,19.5,10.8,19.6,3.5,-5.1,80,52,29,30.36,29.93,14,4,20,0.00
2012-12-10,40.3,29.1,10.6,18.7,0.0,-8.7,80,30,17,30.22,30.00,23,7,33,0.00
2012-12-11,44.2,29.8,14.9,19.4,11.2,5.2,86,51,20,30.11,29.88,24,4,30,0.02
2012-12-12,55.8,38.6,26.4,13.8,9.7,6.1,52,32,14,29.90,29.76,8,2,19,0.00
2012-12-13,54.5,36.6,26.8,15.4,9.6,5.2,49,34,14,30.02,29.90,11,2,11,0.00
2012-12-14,43.5,33.8,26.6,15.3,12.3,8.2,53,41,26,29.89,29.52,6,2,9,0.00
2012-12-15,46.2,37.5,24.4,24.1,18.4,14.0,75,47,27,29.72,29.65,13,4,24,0.00
2012-12-16,45.0,31.0,19.9,24.4,11.8,0.5,89,52,21,29.90,29.69,25,1,31,0.00
2012-12-17,51.6,39.2,28.4,15.6,9.8,2.5,39,30,21,29.85,29.57,21,5,32,0.00
2012-12-18,44.2,35.2,25.3,26.8,21.2,9.3,84,59,34,29.74,29.61,14,4,21,0.00
2012-12-19,25.3,19.4,10.8,19.8,9.7,-8.9,84,68,28,30.34,29.69,18,6,26,0.00
2012-12-20,47.7,30.7,16.9,10.0,1.2,-9.6,51,29,15,30.46,30.31,25,5,32,0.07
2012-12-21,49.1,37.2,24.6,14.4,6.0,0.3,48,28,19,30.31,30.08,9,3,15,0.00
2012-12-22,50.7,38.5,28.8,9.7,-0.2,-7.6,33,20,10,30.08,29.89,13,3,13,0.00
2012-12-23,53.1,38.2,25.0,16.0,6.1,-4.4,60,29,15,29.95,29.87,24,4,36,0.00
2012-12-24,36.9,27.3,16.9,21.6,15.0,11.5,85,61,39,30.05,29.75,12,4,15,0.00
2012-12-25,18.7,11.4,3.6,12.2,4.3,-2.0,83,73,56,30.40,30.05,10,2,15,0.04
2012-12-26,28.4,14.2,3.2,14.5,6.7,-2.0,80,72,53,30.31,29.91,7,1,9,0.01
2012-12-27,26.2,18.1,7.5,17.2,11.0,2.7,83,74,62,30.12,29.90,8,2,9,0.00
2012-12-28,34.3,20.2,7.2,10.6,1.6,-5.6,79,49,22,30.33,30.10,21,4,37,0.01
2012-12-29,32.7,19.3,7.2,8.2,1.0,-6.0,67,46,25,30.37,30.13,6,2,8,0.00
2012-12-30,43.5,26.4,13.6,11.5,3.9,-3.8,59,40,14,30.17,30.04,16,4,21,0.00
2012-12-31,23.0,19.2,11.8,14.9,11.0,6.3,80,70,59,30.25,30.06,6,2,9,0.00